sensor_id;sensor_type;location;lat;lon;timestamp;pressure;altitude;pressure_sealevel;temperature;humidity
51986;BME280;38002;53.296;6.600;2023-02-17T00:02:45;101888.44;;;8.64;96.90
51986;BME280;38002;53.296;6.600;2023-02-17T00:07:45;101874.78;;;8.66;98.77
51986;BME280;38002;53.296;6.600;2023-02-17T00:12:46;101875.63;;;8.67;97.45
51986;BME280;38002;53.296;6.600;2023-02-17T00:17:46;101862.94;;;8.67;98.68
51986;BME280;38002;53.296;6.600;2023-02-17T00:22:46;101842.94;;;8.68;98.16
51986;BME280;38002;53.296;6.600;2023-02-17T00:27:47;101841.09;;;8.69;97.75
51986;BME280;38002;53.296;6.600;2023-02-17T00:32:47;101832.84;;;8.70;98.14
51986;BME280;38002;53.296;6.600;2023-02-17T00:37:48;101830.88;;;8.72;97.50
51986;BME280;38002;53.296;6.600;2023-02-17T00:42:48;101836.06;;;8.75;97.79
51986;BME280;38002;53.296;6.600;2023-02-17T00:47:49;101834.31;;;8.74;98.58
51986;BME280;38002;53.296;6.600;2023-02-17T00:52:49;101823.09;;;8.79;98.09
51986;BME280;38002;53.296;6.600;2023-02-17T00:57:50;101830.97;;;8.82;98.96
51986;BME280;38002;53.296;6.600;2023-02-17T01:02:50;101829.00;;;8.84;97.73
51986;BME280;38002;53.296;6.600;2023-02-17T01:07:50;101829.00;;;8.84;98.27
51986;BME280;38002;53.296;6.600;2023-02-17T01:12:51;101821.47;;;8.87;98.08
51986;BME280;38002;53.296;6.600;2023-02-17T01:17:51;101805.91;;;8.89;98.17
51986;BME280;38002;53.296;6.600;2023-02-17T01:22:52;101807.66;;;8.90;98.11
51986;BME280;38002;53.296;6.600;2023-02-17T01:27:52;101805.81;;;8.91;97.19
51986;BME280;38002;53.296;6.600;2023-02-17T01:32:53;101808.50;;;8.91;97.95
51986;BME280;38002;53.296;6.600;2023-02-17T01:37:53;101809.38;;;8.91;97.76
51986;BME280;38002;53.296;6.600;2023-02-17T01:42:54;101805.69;;;8.92;97.20
51986;BME280;38002;53.296;6.600;2023-02-17T01:47:55;101793.00;;;8.93;97.90
51986;BME280;38002;53.296;6.600;2023-02-17T01:52:58;101773.84;;;8.94;96.78
51986;BME280;38002;53.296;6.600;2023-02-17T01:58:01;101763.75;;;8.96;97.97
51986;BME280;38002;53.296;6.600;2023-02-17T02:03:06;101772.59;;;8.98;97.06
51986;BME280;38002;53.296;6.600;2023-02-17T02:08:09;101772.47;;;9.00;97.19
51986;BME280;38002;53.296;6.600;2023-02-17T02:13:10;101752.34;;;9.02;97.33
51986;BME280;38002;53.296;6.600;2023-02-17T02:18:36;101746.94;;;9.02;96.94
51986;BME280;38002;53.296;6.600;2023-02-17T02:33:53;101744.69;;;9.07;96.79
51986;BME280;38002;53.296;6.600;2023-02-17T02:39:12;101737.53;;;9.06;96.23
51986;BME280;38002;53.296;6.600;2023-02-17T02:44:17;101720.28;;;9.07;96.43
51986;BME280;38002;53.296;6.600;2023-02-17T02:49:18;101720.16;;;9.09;96.04
51986;BME280;38002;53.296;6.600;2023-02-17T02:54:34;101717.28;;;9.10;96.25
51986;BME280;38002;53.296;6.600;2023-02-17T03:10:05;101660.88;;;9.04;96.45
51986;BME280;38002;53.296;6.600;2023-02-17T03:15:22;101652.13;;;9.01;96.52
51986;BME280;38002;53.296;6.600;2023-02-17T03:20:26;101646.09;;;8.97;96.36
51986;BME280;38002;53.296;6.600;2023-02-17T03:25:30;101635.41;;;8.96;96.81
51986;BME280;38002;53.296;6.600;2023-02-17T03:30:30;101633.78;;;8.93;96.75
51986;BME280;38002;53.296;6.600;2023-02-17T03:35:31;101622.22;;;8.91;97.13
51986;BME280;38002;53.296;6.600;2023-02-17T03:40:31;101629.22;;;8.94;96.34
51986;BME280;38002;53.296;6.600;2023-02-17T03:45:35;101611.09;;;8.94;97.29
51986;BME280;38002;53.296;6.600;2023-02-17T03:50:36;101626.41;;;8.95;96.47
51986;BME280;38002;53.296;6.600;2023-02-17T03:55:36;101615.44;;;8.97;96.54
51986;BME280;38002;53.296;6.600;2023-02-17T04:00:37;101614.41;;;8.98;96.16
51986;BME280;38002;53.296;6.600;2023-02-17T04:05:37;101615.28;;;8.98;96.01
51986;BME280;38002;53.296;6.600;2023-02-17T04:10:38;101611.56;;;8.99;95.71
51986;BME280;38002;53.296;6.600;2023-02-17T04:15:38;101600.84;;;8.98;96.11
51986;BME280;38002;53.296;6.600;2023-02-17T04:20:39;101605.28;;;8.99;95.71
51986;BME280;38002;53.296;6.600;2023-02-17T04:25:39;101609.72;;;9.00;95.56
51986;BME280;38002;53.296;6.600;2023-02-17T04:30:45;101603.44;;;8.99;95.52
51986;BME280;38002;53.296;6.600;2023-02-17T04:35:46;101591.00;;;8.97;96.07
51986;BME280;38002;53.296;6.600;2023-02-17T04:40:46;101587.69;;;8.93;96.83
51986;BME280;38002;53.296;6.600;2023-02-17T04:45:47;101591.53;;;8.91;95.74
51986;BME280;38002;53.296;6.600;2023-02-17T04:50:47;101559.38;;;8.86;96.18
51986;BME280;38002;53.296;6.600;2023-02-17T04:55:49;101553.25;;;8.84;97.29
51986;BME280;38002;53.296;6.600;2023-02-17T05:00:51;101561.63;;;8.81;96.50
51986;BME280;38002;53.296;6.600;2023-02-17T05:05:51;101583.47;;;8.80;96.87
51986;BME280;38002;53.296;6.600;2023-02-17T05:10:52;101592.59;;;8.79;96.58
51986;BME280;38002;53.296;6.600;2023-02-17T05:15:53;101606.28;;;8.77;96.75
51986;BME280;38002;53.296;6.600;2023-02-17T05:20:53;101575.47;;;8.78;97.11
51986;BME280;38002;53.296;6.600;2023-02-17T05:25:54;101554.06;;;8.75;97.47
51986;BME280;38002;53.296;6.600;2023-02-17T05:30:54;101535.78;;;8.77;97.65
51986;BME280;38002;53.296;6.600;2023-02-17T05:35:55;101517.06;;;8.74;97.88
51986;BME280;38002;53.296;6.600;2023-02-17T05:40:56;101525.22;;;8.74;98.25
51986;BME280;38002;53.296;6.600;2023-02-17T05:46:03;101520.66;;;8.75;98.08
51986;BME280;38002;53.296;6.600;2023-02-17T05:51:04;101511.53;;;8.76;97.90
51986;BME280;38002;53.296;6.600;2023-02-17T05:56:05;101522.09;;;8.79;97.83
51986;BME280;38002;53.296;6.600;2023-02-17T06:01:10;101524.66;;;8.80;97.68
51986;BME280;38002;53.296;6.600;2023-02-17T06:06:10;101513.81;;;8.80;97.33
51986;BME280;38002;53.296;6.600;2023-02-17T06:11:11;101516.53;;;8.80;97.13
51986;BME280;38002;53.296;6.600;2023-02-17T06:16:11;101527.38;;;8.80;97.25
51986;BME280;38002;53.296;6.600;2023-02-17T06:21:12;101527.25;;;8.82;97.31
51986;BME280;38002;53.296;6.600;2023-02-17T06:26:12;101514.66;;;8.81;97.45
51986;BME280;38002;53.296;6.600;2023-02-17T06:31:13;101498.28;;;8.82;97.24
51986;BME280;38002;53.296;6.600;2023-02-17T06:36:14;101497.41;;;8.82;97.64
51986;BME280;38002;53.296;6.600;2023-02-17T06:41:14;101495.44;;;8.84;97.35
51986;BME280;38002;53.296;6.600;2023-02-17T06:46:15;101514.16;;;8.87;97.50
51986;BME280;38002;53.296;6.600;2023-02-17T06:51:15;101504.00;;;8.89;97.37
51986;BME280;38002;53.296;6.600;2023-02-17T06:56:16;101500.19;;;8.91;97.55
51986;BME280;38002;53.296;6.600;2023-02-17T07:01:19;101479.19;;;8.93;97.37
51986;BME280;38002;53.296;6.600;2023-02-17T07:06:20;101465.50;;;8.95;97.42
51986;BME280;38002;53.296;6.600;2023-02-17T07:11:22;101466.09;;;8.98;97.49
51986;BME280;38002;53.296;6.600;2023-02-17T07:16:23;101482.09;;;9.01;97.92
51986;BME280;38002;53.296;6.600;2023-02-17T07:21:24;101469.97;;;9.05;97.62
51986;BME280;38002;53.296;6.600;2023-02-17T07:26:24;101448.97;;;9.07;98.35
51986;BME280;38002;53.296;6.600;2023-02-17T07:31:24;101462.41;;;9.09;98.28
51986;BME280;38002;53.296;6.600;2023-02-17T07:36:25;101451.56;;;9.09;98.55
51986;BME280;38002;53.296;6.600;2023-02-17T07:41:26;101451.28;;;9.12;98.35
51986;BME280;38002;53.296;6.600;2023-02-17T07:46:27;101447.47;;;9.15;97.87
51986;BME280;38002;53.296;6.600;2023-02-17T07:51:28;101433.44;;;9.19;98.37
51986;BME280;38002;53.296;6.600;2023-02-17T07:56:29;101444.16;;;9.21;97.53
51986;BME280;38002;53.296;6.600;2023-02-17T08:01:29;101432.31;;;9.22;97.56
51986;BME280;38002;53.296;6.600;2023-02-17T08:06:30;101435.47;;;9.27;97.93
51986;BME280;38002;53.296;6.600;2023-02-17T08:11:30;101423.47;;;9.29;97.73
51986;BME280;38002;53.296;6.600;2023-02-17T08:16:50;101427.34;;;9.36;98.10
51986;BME280;38002;53.296;6.600;2023-02-17T08:21:51;101433.19;;;9.41;97.98
51986;BME280;38002;53.296;6.600;2023-02-17T08:26:52;101428.78;;;9.50;97.81
51986;BME280;38002;53.296;6.600;2023-02-17T08:31:52;101420.09;;;9.56;97.67
51986;BME280;38002;53.296;6.600;2023-02-17T08:36:53;101423.06;;;9.63;96.84
51986;BME280;38002;53.296;6.600;2023-02-17T08:41:54;101408.81;;;9.70;97.67
51986;BME280;38002;53.296;6.600;2023-02-17T08:46:54;101400.06;;;9.76;97.31
51986;BME280;38002;53.296;6.600;2023-02-17T08:51:55;101405.81;;;9.83;97.24
51986;BME280;38002;53.296;6.600;2023-02-17T08:56:55;101402.66;;;9.87;96.50
51986;BME280;38002;53.296;6.600;2023-02-17T09:01:57;101407.50;;;9.93;96.72
51986;BME280;38002;53.296;6.600;2023-02-17T09:06:58;101400.50;;;10.00;96.38
51986;BME280;38002;53.296;6.600;2023-02-17T09:11:59;101391.91;;;10.05;96.19
51986;BME280;38002;53.296;6.600;2023-02-17T09:16:59;101399.31;;;10.13;96.04
51986;BME280;38002;53.296;6.600;2023-02-17T09:22:00;101409.34;;;10.22;95.45
51986;BME280;38002;53.296;6.600;2023-02-17T09:27:00;101411.63;;;10.26;95.14
51986;BME280;38002;53.296;6.600;2023-02-17T09:32:05;101390.88;;;10.35;95.02
51986;BME280;38002;53.296;6.600;2023-02-17T09:37:10;101393.97;;;10.40;94.55
51986;BME280;38002;53.296;6.600;2023-02-17T09:42:20;101376.94;;;10.48;94.73
51986;BME280;38002;53.296;6.600;2023-02-17T09:47:29;101409.81;;;10.54;94.65
51986;BME280;38002;53.296;6.600;2023-02-17T09:52:52;101423.09;;;10.57;94.14
51986;BME280;38002;53.296;6.600;2023-02-17T09:57:56;101435.72;;;10.58;94.74
51986;BME280;38002;53.296;6.600;2023-02-17T10:08:21;101466.63;;;10.57;94.56
51986;BME280;38002;53.296;6.600;2023-02-17T10:13:23;101476.38;;;10.60;93.90
51986;BME280;38002;53.296;6.600;2023-02-17T10:18:39;101460.59;;;10.63;94.26
51986;BME280;38002;53.296;6.600;2023-02-17T10:23:42;101472.34;;;10.64;94.09
51986;BME280;38002;53.296;6.600;2023-02-17T10:29:29;101467.31;;;10.69;93.40
51986;BME280;38002;53.296;6.600;2023-02-17T10:34:39;101469.59;;;10.73;93.50
51986;BME280;38002;53.296;6.600;2023-02-17T10:39:49;101457.69;;;10.74;93.43
51986;BME280;38002;53.296;6.600;2023-02-17T10:44:52;101480.03;;;10.78;93.31
51986;BME280;38002;53.296;6.600;2023-02-17T10:49:57;101502.66;;;10.78;93.67
51986;BME280;38002;53.296;6.600;2023-02-17T10:55:06;101495.06;;;10.82;93.12
51986;BME280;38002;53.296;6.600;2023-02-17T11:00:15;101496.63;;;10.84;92.92
51986;BME280;38002;53.296;6.600;2023-02-17T11:05:25;101505.78;;;10.83;92.71
51986;BME280;38002;53.296;6.600;2023-02-17T11:10:30;101477.25;;;10.87;93.00
51986;BME280;38002;53.296;6.600;2023-02-17T11:15:42;101492.03;;;10.85;92.90
51986;BME280;38002;53.296;6.600;2023-02-17T11:20:43;101501.19;;;10.84;92.94
51986;BME280;38002;53.296;6.600;2023-02-17T11:25:55;101487.16;;;10.88;92.51
51986;BME280;38002;53.296;6.600;2023-02-17T11:30:58;101482.66;;;10.97;92.57
51986;BME280;38002;53.296;6.600;2023-02-17T11:36:00;101481.63;;;11.08;92.10
51986;BME280;38002;53.296;6.600;2023-02-17T11:41:03;101463.53;;;11.16;91.75
51986;BME280;38002;53.296;6.600;2023-02-17T11:46:30;101454.31;;;11.27;91.37
51986;BME280;38002;53.296;6.600;2023-02-17T11:56:45;101470.44;;;11.38;91.17
51986;BME280;38002;53.296;6.600;2023-02-17T12:17:41;101475.13;;;11.46;90.50
51986;BME280;38002;53.296;6.600;2023-02-17T12:33:50;101496.00;;;11.55;90.43
51986;BME280;38002;53.296;6.600;2023-02-17T12:38:59;101502.53;;;11.62;90.39
51986;BME280;38002;53.296;6.600;2023-02-17T12:44:10;101506.22;;;11.70;90.34
51986;BME280;38002;53.296;6.600;2023-02-17T12:49:19;101501.28;;;11.83;90.23
51986;BME280;38002;53.296;6.600;2023-02-17T12:54:38;101506.81;;;11.92;89.62
51986;BME280;38002;53.296;6.600;2023-02-17T12:59:46;101505.78;;;11.93;89.84
51986;BME280;38002;53.296;6.600;2023-02-17T13:04:52;101510.38;;;11.92;88.68
51986;BME280;38002;53.296;6.600;2023-02-17T13:09:55;101515.84;;;11.92;89.64
51986;BME280;38002;53.296;6.600;2023-02-17T13:15:02;101522.16;;;11.93;89.14
51986;BME280;38002;53.296;6.600;2023-02-17T13:25:27;101543.34;;;11.99;89.12
51986;BME280;38002;53.296;6.600;2023-02-17T13:30:38;101563.97;;;12.01;88.84
51986;BME280;38002;53.296;6.600;2023-02-17T13:35:39;101535.25;;;12.07;89.10
51986;BME280;38002;53.296;6.600;2023-02-17T13:40:41;101574.19;;;12.17;88.95
51986;BME280;38002;53.296;6.600;2023-02-17T13:45:51;101577.56;;;12.28;88.47
51986;BME280;38002;53.296;6.600;2023-02-17T13:50:58;101586.13;;;12.34;87.36
51986;BME280;38002;53.296;6.600;2023-02-17T13:56:06;101590.31;;;12.28;88.02
51986;BME280;38002;53.296;6.600;2023-02-17T14:01:14;101598.56;;;12.18;87.94
51986;BME280;38002;53.296;6.600;2023-02-17T14:06:29;101609.25;;;12.12;87.25
51986;BME280;38002;53.296;6.600;2023-02-17T14:11:29;101630.03;;;12.13;87.60
51986;BME280;38002;53.296;6.600;2023-02-17T14:16:37;101621.31;;;12.09;87.32
51986;BME280;38002;53.296;6.600;2023-02-17T14:21:41;101635.88;;;12.18;86.61
51986;BME280;38002;53.296;6.600;2023-02-17T14:26:46;101634.28;;;12.25;86.51
51986;BME280;38002;53.296;6.600;2023-02-17T14:31:49;101659.97;;;12.22;84.67
51986;BME280;38002;53.296;6.600;2023-02-17T14:36:50;101663.56;;;12.23;85.38
51986;BME280;38002;53.296;6.600;2023-02-17T14:41:50;101661.75;;;12.14;84.91
51986;BME280;38002;53.296;6.600;2023-02-17T14:46:51;101679.31;;;12.02;84.71
51986;BME280;38002;53.296;6.600;2023-02-17T14:51:51;101685.00;;;11.91;84.91
51986;BME280;38002;53.296;6.600;2023-02-17T14:57:04;101693.19;;;11.81;84.32
51986;BME280;38002;53.296;6.600;2023-02-17T15:02:17;101714.44;;;11.68;83.49
51986;BME280;38002;53.296;6.600;2023-02-17T15:07:18;101734.81;;;11.54;84.56
51986;BME280;38002;53.296;6.600;2023-02-17T15:12:20;101751.78;;;11.38;82.85
51986;BME280;38002;53.296;6.600;2023-02-17T15:17:21;101753.34;;;11.22;83.02
51986;BME280;38002;53.296;6.600;2023-02-17T15:22:21;101757.66;;;11.05;81.37
51986;BME280;38002;53.296;6.600;2023-02-17T15:27:23;101779.00;;;10.90;80.30
51986;BME280;38002;53.296;6.600;2023-02-17T15:32:23;101785.84;;;10.75;80.84
51986;BME280;38002;53.296;6.600;2023-02-17T15:37:24;101801.84;;;10.59;81.63
51986;BME280;38002;53.296;6.600;2023-02-17T15:42:24;101810.41;;;10.45;80.42
51986;BME280;38002;53.296;6.600;2023-02-17T15:47:25;101821.91;;;10.28;80.63
51986;BME280;38002;53.296;6.600;2023-02-17T15:52:26;101833.97;;;10.14;80.63
51986;BME280;38002;53.296;6.600;2023-02-17T15:57:26;101856.97;;;10.00;80.26
51986;BME280;38002;53.296;6.600;2023-02-17T16:02:27;101857.16;;;9.88;79.98
51986;BME280;38002;53.296;6.600;2023-02-17T16:07:28;101857.34;;;9.75;80.28
51986;BME280;38002;53.296;6.600;2023-02-17T16:12:29;101861.13;;;9.63;80.99
51986;BME280;38002;53.296;6.600;2023-02-17T16:17:29;101864.50;;;9.55;80.58
51986;BME280;38002;53.296;6.600;2023-02-17T16:22:30;101882.69;;;9.44;81.33
51986;BME280;38002;53.296;6.600;2023-02-17T16:27:30;101887.28;;;9.32;80.82
51986;BME280;38002;53.296;6.600;2023-02-17T16:32:31;101907.22;;;9.22;80.06
51986;BME280;38002;53.296;6.600;2023-02-17T16:37:32;101906.25;;;9.11;80.22
51986;BME280;38002;53.296;6.600;2023-02-17T16:42:32;101926.25;;;8.99;80.21
51986;BME280;38002;53.296;6.600;2023-02-17T16:47:33;101930.47;;;8.92;80.38
51986;BME280;38002;53.296;6.600;2023-02-17T16:52:33;101957.56;;;8.81;80.63
51986;BME280;38002;53.296;6.600;2023-02-17T16:57:34;101961.78;;;8.74;80.54
51986;BME280;38002;53.296;6.600;2023-02-17T17:02:34;101972.38;;;8.66;80.60
51986;BME280;38002;53.296;6.600;2023-02-17T17:07:36;101977.41;;;8.59;81.34
51986;BME280;38002;53.296;6.600;2023-02-17T17:12:37;101983.56;;;8.50;80.99
51986;BME280;38002;53.296;6.600;2023-02-17T17:22:45;102022.63;;;8.37;80.99
51986;BME280;38002;53.296;6.600;2023-02-17T17:27:46;102034.66;;;8.33;80.76
51986;BME280;38002;53.296;6.600;2023-02-17T17:32:47;102035.09;;;8.27;81.02
51986;BME280;38002;53.296;6.600;2023-02-17T17:37:47;102039.16;;;8.21;80.99
51986;BME280;38002;53.296;6.600;2023-02-17T17:42:48;102055.03;;;8.14;81.38
51986;BME280;38002;53.296;6.600;2023-02-17T17:47:49;102074.34;;;8.10;81.33
51986;BME280;38002;53.296;6.600;2023-02-17T17:52:50;102069.13;;;8.07;81.36
51986;BME280;38002;53.296;6.600;2023-02-17T17:57:51;102084.03;;;8.01;81.52
51986;BME280;38002;53.296;6.600;2023-02-17T18:02:52;102087.94;;;7.97;80.76
51986;BME280;38002;53.296;6.600;2023-02-17T18:07:53;102088.16;;;7.94;81.20
51986;BME280;38002;53.296;6.600;2023-02-17T18:12:54;102106.38;;;7.92;81.14
51986;BME280;38002;53.296;6.600;2023-02-17T18:17:54;102102.91;;;7.90;81.61
51986;BME280;38002;53.296;6.600;2023-02-17T18:22:55;102115.72;;;7.88;81.31
51986;BME280;38002;53.296;6.600;2023-02-17T18:27:56;102123.06;;;7.86;80.84
51986;BME280;38002;53.296;6.600;2023-02-17T18:32:56;102132.41;;;7.82;81.89
51986;BME280;38002;53.296;6.600;2023-02-17T18:37:57;102127.84;;;7.83;81.29
51986;BME280;38002;53.296;6.600;2023-02-17T18:42:57;102115.28;;;7.82;80.75
51986;BME280;38002;53.296;6.600;2023-02-17T18:47:58;102135.00;;;7.84;80.67
51986;BME280;38002;53.296;6.600;2023-02-17T18:52:59;102145.06;;;7.82;80.52
51986;BME280;38002;53.296;6.600;2023-02-17T18:58:00;102148.88;;;7.79;80.64
51986;BME280;38002;53.296;6.600;2023-02-17T19:03:00;102156.47;;;7.74;80.99
51986;BME280;38002;53.296;6.600;2023-02-17T19:08:01;102162.13;;;7.71;80.77
51986;BME280;38002;53.296;6.600;2023-02-17T19:13:01;102165.03;;;7.68;81.45
51986;BME280;38002;53.296;6.600;2023-02-17T19:18:02;102180.63;;;7.64;80.43
51986;BME280;38002;53.296;6.600;2023-02-17T19:23:03;102178.59;;;7.55;81.16
51986;BME280;38002;53.296;6.600;2023-02-17T19:28:04;102188.69;;;7.53;81.12
51986;BME280;38002;53.296;6.600;2023-02-17T19:33:04;102213.34;;;7.49;81.58
51986;BME280;38002;53.296;6.600;2023-02-17T19:38:05;102218.13;;;7.45;81.21
51986;BME280;38002;53.296;6.600;2023-02-17T19:43:05;102216.72;;;7.40;81.93
51986;BME280;38002;53.296;6.600;2023-02-17T19:48:06;102212.50;;;7.36;82.11
51986;BME280;38002;53.296;6.600;2023-02-17T19:53:06;102208.28;;;7.32;82.02
51986;BME280;38002;53.296;6.600;2023-02-17T19:58:07;102205.91;;;7.27;82.44
51986;BME280;38002;53.296;6.600;2023-02-17T20:03:07;102202.63;;;7.22;82.02
51986;BME280;38002;53.296;6.600;2023-02-17T20:08:08;102204.59;;;7.20;82.48
51986;BME280;38002;53.296;6.600;2023-02-17T20:13:08;102182.41;;;7.15;82.24
51986;BME280;38002;53.296;6.600;2023-02-17T20:18:09;102179.06;;;7.11;82.78
51986;BME280;38002;53.296;6.600;2023-02-17T20:23:09;102181.97;;;7.08;83.09
51986;BME280;38002;53.296;6.600;2023-02-17T20:28:10;102190.31;;;7.05;83.20
51986;BME280;38002;53.296;6.600;2023-02-17T20:33:11;102200.47;;;7.02;83.16
51986;BME280;38002;53.296;6.600;2023-02-17T20:38:11;102196.25;;;6.98;83.06
51986;BME280;38002;53.296;6.600;2023-02-17T20:43:12;102193.72;;;6.95;83.48
51986;BME280;38002;53.296;6.600;2023-02-17T20:48:12;102191.56;;;6.87;83.81
51986;BME280;38002;53.296;6.600;2023-02-17T20:53:13;102217.56;;;6.90;83.69
51986;BME280;38002;53.296;6.600;2023-02-17T20:58:13;102220.34;;;6.88;83.49
51986;BME280;38002;53.296;6.600;2023-02-17T21:03:14;102216.56;;;6.91;84.06
51986;BME280;38002;53.296;6.600;2023-02-17T21:08:14;102225.22;;;6.96;83.69
51986;BME280;38002;53.296;6.600;2023-02-17T21:13:15;102241.13;;;7.00;83.79
51986;BME280;38002;53.296;6.600;2023-02-17T21:18:15;102229.03;;;7.06;84.02
51986;BME280;38002;53.296;6.600;2023-02-17T21:23:16;102227.75;;;7.11;83.62
51986;BME280;38002;53.296;6.600;2023-02-17T21:28:16;102228.28;;;7.16;83.51
51986;BME280;38002;53.296;6.600;2023-02-17T21:33:17;102226.91;;;7.23;83.86
51986;BME280;38002;53.296;6.600;2023-02-17T21:38:17;102230.25;;;7.27;83.67
51986;BME280;38002;53.296;6.600;2023-02-17T21:43:20;102232.63;;;7.32;83.40
51986;BME280;38002;53.296;6.600;2023-02-17T21:48:39;102235.88;;;7.37;83.13
51986;BME280;38002;53.296;6.600;2023-02-17T21:53:40;102233.19;;;7.37;82.92
51986;BME280;38002;53.296;6.600;2023-02-17T21:58:45;102253.72;;;7.39;83.46
51986;BME280;38002;53.296;6.600;2023-02-17T22:03:45;102244.75;;;7.39;83.47
51986;BME280;38002;53.296;6.600;2023-02-17T22:08:46;102235.75;;;7.38;83.48
51986;BME280;38002;53.296;6.600;2023-02-17T22:13:47;102244.88;;;7.37;83.62
51986;BME280;38002;53.296;6.600;2023-02-17T22:18:48;102252.22;;;7.35;83.95
51986;BME280;38002;53.296;6.600;2023-02-17T22:23:49;102259.69;;;7.32;83.66
51986;BME280;38002;53.296;6.600;2023-02-17T22:28:51;102258.16;;;7.27;83.68
51986;BME280;38002;53.296;6.600;2023-02-17T22:33:51;102259.44;;;7.22;83.94
51986;BME280;38002;53.296;6.600;2023-02-17T22:38:53;102261.50;;;7.18;84.55
51986;BME280;38002;53.296;6.600;2023-02-17T22:43:54;102252.63;;;7.16;84.13
51986;BME280;38002;53.296;6.600;2023-02-17T22:48:55;102246.47;;;7.14;84.35
51986;BME280;38002;53.296;6.600;2023-02-17T22:53:56;102251.31;;;7.09;84.16
51986;BME280;38002;53.296;6.600;2023-02-17T22:58:57;102262.34;;;7.06;84.35
51986;BME280;38002;53.296;6.600;2023-02-17T23:04:00;102258.88;;;7.04;84.51
51986;BME280;38002;53.296;6.600;2023-02-17T23:09:01;102256.41;;;7.01;84.45
51986;BME280;38002;53.296;6.600;2023-02-17T23:14:02;102244.16;;;6.96;84.94
51986;BME280;38002;53.296;6.600;2023-02-17T23:19:08;102242.41;;;6.95;84.64
51986;BME280;38002;53.296;6.600;2023-02-17T23:24:09;102254.72;;;6.86;84.88
51986;BME280;38002;53.296;6.600;2023-02-17T23:29:10;102234.59;;;6.77;84.98
51986;BME280;38002;53.296;6.600;2023-02-17T23:34:12;102243.44;;;6.67;84.75
51986;BME280;38002;53.296;6.600;2023-02-17T23:39:15;102257.03;;;6.65;84.79
51986;BME280;38002;53.296;6.600;2023-02-17T23:44:16;102252.72;;;6.63;84.66
51986;BME280;38002;53.296;6.600;2023-02-17T23:49:17;102238.44;;;6.61;85.44
51986;BME280;38002;53.296;6.600;2023-02-17T23:54:17;102255.34;;;6.64;84.78
51986;BME280;38002;53.296;6.600;2023-02-17T23:59:18;102236.28;;;6.66;84.72
